Fall Creek, Illinois
Current Conditions -  °F | °C
As of 10:55 AM on Thursday 30 Oct 2014 (Local Time) from KHAE Reporting Station
Moderate Rain Moderate Rain  
Wind Chill: 40°   Ceiling: 6500
Heat Index: 45°   Visibility: 7mi
Dew Point: 37°   Wind: 9mph
Humidity: 76%   Direction: 150°SSE
Pressure: 30.07"   Gusts: NA
Location:  39.806°N, 91.2945°W
Report Text: KHAE 301555Z AUTO 15008KT 7SM RA BKN065 OVC085 07/03 A3007 RMK AO2 P0001
Loading
Personal Weather Stations






























Interactive Weather Map
Tropical Storm Tracking
New forecast layout! Learn more

10-Day Weather Forecast

Advertisements
Track Severe Weather on mobile